This is the latest recevied weather packets stored in our database for station/object CE4ERM-13. If no packets are shown the sender has not sent any weather packets the latest 10 day(s).
| Time | Temp. | Humidity | Pressure | Rain* | Wind** | Luminosity | Snow |
|---|---|---|---|---|---|---|---|
| 1777751654 | 25° C | 36% | 1001.2 hPa | - | - | - | - |
| 1777751053 | 25° C | 35% | 1014.8 hPa | - | - | - | - |
| 1777750452 | 25° C | 36% | 1018.5 hPa | - | - | - | - |
| 1777749852 | 24.44° C | 40% | 1018 hPa | - | - | - | - |
| 1777749251 | 24.44° C | 40% | 1017.4 hPa | - | - | - | - |
| 1777748652 | 24.44° C | 40% | 1018.3 hPa | - | - | - | - |
| 1777748052 | 24.44° C | 41% | 1016.6 hPa | - | - | - | - |
| 1777747704 | 33.89° C | 23% | 1017 hPa | - | - | - | - |
| 1777747451 | 23.89° C | 41% | 1017 hPa | - | - | - | - |
| 1777747104 | 34.44° C | 23% | 1015.7 hPa | - | - | - | - |
| 1777746852 | 24.44° C | 40% | 1019.4 hPa | - | - | - | - |
| 1777746503 | 34.44° C | 22% | 1015.5 hPa | - | - | - | - |
| 1777746250 | 23.89° C | 40% | 1017.5 hPa | - | - | - | - |
| 1777745650 | 23.89° C | 43% | 1018.9 hPa | - | - | - | - |
| 1777745051 | 23.89° C | 44% | 1015.8 hPa | - | - | - | - |
| 1777744702 | 33.33° C | 26% | 1015.5 hPa | - | - | - | - |
| 1777744626 | 23.89° C | 46% | 1016.4 hPa | - | - | - | - |
| 1777744511 | 23.89° C | 46% | 1016.4 hPa | - | - | - | - |
| 1777744450 | 23.89° C | 46% | 1016.4 hPa | - | - | - | - |
| 1777743849 | 23.33° C | 49% | 1014.7 hPa | - | - | - | - |
| 1777743515 | 23.33° C | 49% | 1016.9 hPa | - | - | - | - |
| 1777743502 | 33.89° C | 25% | 1017.5 hPa | - | - | - | - |
| 1777743293 | 23.33° C | 49% | 1016.9 hPa | - | - | - | - |
| 1777743248 | 23.33° C | 49% | 1016.9 hPa | - | - | - | - |
| 1777742902 | 33.33° C | 26% | 1016.8 hPa | - | - | - | - |
* Rain since midnight (hover to see other rain measurements)
** Current wind speed in m/s (hover to see current wind gust speed)